sensor_id;sensor_type;location;lat;lon;timestamp;P1;durP1;ratioP1;P2;durP2;ratioP2
52414;SDS011;38340;52.964;6.086;2023-12-20T00:01:03;19.58;;;4.47;;
52414;SDS011;38340;52.964;6.086;2023-12-20T00:03:29;18.52;;;3.80;;
52414;SDS011;38340;52.964;6.086;2023-12-20T00:05:54;11.45;;;4.55;;
52414;SDS011;38340;52.964;6.086;2023-12-20T00:08:20;26.52;;;3.97;;
52414;SDS011;38340;52.964;6.086;2023-12-20T00:10:46;11.32;;;3.80;;
52414;SDS011;38340;52.964;6.086;2023-12-20T00:13:12;19.90;;;3.60;;
52414;SDS011;38340;52.964;6.086;2023-12-20T00:15:38;13.60;;;3.50;;
52414;SDS011;38340;52.964;6.086;2023-12-20T00:18:03;16.35;;;4.13;;
52414;SDS011;38340;52.964;6.086;2023-12-20T00:20:30;19.73;;;4.03;;
52414;SDS011;38340;52.964;6.086;2023-12-20T00:22:56;19.58;;;4.18;;
52414;SDS011;38340;52.964;6.086;2023-12-20T00:25:25;19.05;;;4.57;;
52414;SDS011;38340;52.964;6.086;2023-12-20T00:27:51;14.63;;;3.83;;
52414;SDS011;38340;52.964;6.086;2023-12-20T00:30:17;16.13;;;4.45;;
52414;SDS011;38340;52.964;6.086;2023-12-20T00:32:43;30.15;;;4.60;;
52414;SDS011;38340;52.964;6.086;2023-12-20T00:35:14;17.58;;;4.18;;
52414;SDS011;38340;52.964;6.086;2023-12-20T00:37:40;20.10;;;5.18;;
52414;SDS011;38340;52.964;6.086;2023-12-20T00:40:06;12.23;;;4.20;;
52414;SDS011;38340;52.964;6.086;2023-12-20T00:42:32;17.00;;;4.63;;
52414;SDS011;38340;52.964;6.086;2023-12-20T00:44:58;21.25;;;4.22;;
52414;SDS011;38340;52.964;6.086;2023-12-20T00:47:25;19.95;;;4.30;;
52414;SDS011;38340;52.964;6.086;2023-12-20T00:49:50;12.23;;;4.35;;
52414;SDS011;38340;52.964;6.086;2023-12-20T00:52:16;23.52;;;5.50;;
52414;SDS011;38340;52.964;6.086;2023-12-20T00:54:42;14.52;;;4.00;;
52414;SDS011;38340;52.964;6.086;2023-12-20T00:57:08;14.93;;;3.65;;
52414;SDS011;38340;52.964;6.086;2023-12-20T00:59:34;21.58;;;4.30;;
52414;SDS011;38340;52.964;6.086;2023-12-20T01:02:00;10.80;;;3.60;;
52414;SDS011;38340;52.964;6.086;2023-12-20T01:04:26;18.02;;;4.22;;
52414;SDS011;38340;52.964;6.086;2023-12-20T01:06:52;22.73;;;3.63;;
52414;SDS011;38340;52.964;6.086;2023-12-20T01:09:18;16.42;;;4.45;;
52414;SDS011;38340;52.964;6.086;2023-12-20T01:11:44;19.85;;;5.43;;
52414;SDS011;38340;52.964;6.086;2023-12-20T01:14:11;23.42;;;5.38;;
52414;SDS011;38340;52.964;6.086;2023-12-20T01:16:37;15.73;;;4.45;;
52414;SDS011;38340;52.964;6.086;2023-12-20T01:19:03;18.35;;;4.45;;
52414;SDS011;38340;52.964;6.086;2023-12-20T01:21:28;19.58;;;4.72;;
52414;SDS011;38340;52.964;6.086;2023-12-20T01:23:54;16.55;;;4.30;;
52414;SDS011;38340;52.964;6.086;2023-12-20T01:26:20;18.13;;;4.30;;
52414;SDS011;38340;52.964;6.086;2023-12-20T01:28:45;17.73;;;4.22;;
52414;SDS011;38340;52.964;6.086;2023-12-20T01:31:11;21.58;;;4.97;;
52414;SDS011;38340;52.964;6.086;2023-12-20T01:33:37;27.27;;;5.00;;
52414;SDS011;38340;52.964;6.086;2023-12-20T01:36:03;16.13;;;5.10;;
52414;SDS011;38340;52.964;6.086;2023-12-20T01:38:29;19.73;;;5.40;;
52414;SDS011;38340;52.964;6.086;2023-12-20T01:40:54;11.95;;;4.10;;
52414;SDS011;38340;52.964;6.086;2023-12-20T01:43:20;17.83;;;4.80;;
52414;SDS011;38340;52.964;6.086;2023-12-20T01:45:46;18.50;;;4.43;;
52414;SDS011;38340;52.964;6.086;2023-12-20T01:48:12;16.83;;;4.60;;
52414;SDS011;38340;52.964;6.086;2023-12-20T01:50:41;22.48;;;5.47;;
52414;SDS011;38340;52.964;6.086;2023-12-20T01:53:08;21.27;;;5.10;;
52414;SDS011;38340;52.964;6.086;2023-12-20T01:55:38;16.75;;;5.57;;
52414;SDS011;38340;52.964;6.086;2023-12-20T01:58:05;18.92;;;5.35;;
52414;SDS011;38340;52.964;6.086;2023-12-20T02:00:33;19.55;;;4.90;;
52414;SDS011;38340;52.964;6.086;2023-12-20T02:03:03;15.20;;;4.53;;
52414;SDS011;38340;52.964;6.086;2023-12-20T02:05:30;22.88;;;4.57;;
52414;SDS011;38340;52.964;6.086;2023-12-20T02:07:56;18.25;;;6.15;;
52414;SDS011;38340;52.964;6.086;2023-12-20T02:10:23;21.33;;;5.28;;
52414;SDS011;38340;52.964;6.086;2023-12-20T02:12:49;21.77;;;5.18;;
52414;SDS011;38340;52.964;6.086;2023-12-20T02:15:15;21.52;;;5.13;;
52414;SDS011;38340;52.964;6.086;2023-12-20T02:17:41;24.58;;;4.97;;
52414;SDS011;38340;52.964;6.086;2023-12-20T02:20:06;17.33;;;5.72;;
52414;SDS011;38340;52.964;6.086;2023-12-20T02:22:32;23.63;;;5.82;;
52414;SDS011;38340;52.964;6.086;2023-12-20T02:24:58;25.77;;;5.72;;
52414;SDS011;38340;52.964;6.086;2023-12-20T02:27:24;32.83;;;6.70;;
52414;SDS011;38340;52.964;6.086;2023-12-20T02:29:50;27.05;;;6.13;;
52414;SDS011;38340;52.964;6.086;2023-12-20T02:32:17;18.52;;;4.22;;
52414;SDS011;38340;52.964;6.086;2023-12-20T02:34:43;29.92;;;5.55;;
52414;SDS011;38340;52.964;6.086;2023-12-20T02:37:09;23.33;;;5.78;;
52414;SDS011;38340;52.964;6.086;2023-12-20T02:39:34;19.13;;;5.88;;
52414;SDS011;38340;52.964;6.086;2023-12-20T02:42:00;16.08;;;4.95;;
52414;SDS011;38340;52.964;6.086;2023-12-20T02:44:26;21.40;;;5.55;;
52414;SDS011;38340;52.964;6.086;2023-12-20T02:46:52;21.45;;;5.75;;
52414;SDS011;38340;52.964;6.086;2023-12-20T02:49:17;25.27;;;7.13;;
52414;SDS011;38340;52.964;6.086;2023-12-20T02:51:43;26.35;;;6.22;;
52414;SDS011;38340;52.964;6.086;2023-12-20T02:54:09;24.88;;;6.00;;
52414;SDS011;38340;52.964;6.086;2023-12-20T02:56:34;20.40;;;4.85;;
52414;SDS011;38340;52.964;6.086;2023-12-20T02:59:00;23.90;;;6.20;;
52414;SDS011;38340;52.964;6.086;2023-12-20T03:01:27;23.25;;;5.43;;
52414;SDS011;38340;52.964;6.086;2023-12-20T03:03:53;18.85;;;6.18;;
52414;SDS011;38340;52.964;6.086;2023-12-20T03:06:18;20.35;;;5.60;;
52414;SDS011;38340;52.964;6.086;2023-12-20T03:08:44;21.27;;;5.53;;
52414;SDS011;38340;52.964;6.086;2023-12-20T03:11:10;22.70;;;5.45;;
52414;SDS011;38340;52.964;6.086;2023-12-20T03:13:36;26.52;;;7.35;;
52414;SDS011;38340;52.964;6.086;2023-12-20T03:16:11;21.40;;;5.25;;
52414;SDS011;38340;52.964;6.086;2023-12-20T03:18:38;18.90;;;6.10;;
52414;SDS011;38340;52.964;6.086;2023-12-20T03:21:04;17.10;;;5.00;;
52414;SDS011;38340;52.964;6.086;2023-12-20T03:23:30;30.75;;;6.32;;
52414;SDS011;38340;52.964;6.086;2023-12-20T03:25:57;31.25;;;6.07;;
52414;SDS011;38340;52.964;6.086;2023-12-20T03:28:23;30.63;;;6.07;;
52414;SDS011;38340;52.964;6.086;2023-12-20T03:30:49;25.08;;;5.85;;
52414;SDS011;38340;52.964;6.086;2023-12-20T03:33:15;30.17;;;6.72;;
52414;SDS011;38340;52.964;6.086;2023-12-20T03:35:41;20.67;;;6.90;;
52414;SDS011;38340;52.964;6.086;2023-12-20T03:38:07;24.08;;;5.93;;
52414;SDS011;38340;52.964;6.086;2023-12-20T03:40:33;30.05;;;5.60;;
52414;SDS011;38340;52.964;6.086;2023-12-20T03:42:58;29.58;;;6.85;;
52414;SDS011;38340;52.964;6.086;2023-12-20T03:45:24;24.75;;;6.70;;
52414;SDS011;38340;52.964;6.086;2023-12-20T03:47:50;25.42;;;6.45;;
52414;SDS011;38340;52.964;6.086;2023-12-20T03:50:20;27.48;;;7.43;;
52414;SDS011;38340;52.964;6.086;2023-12-20T03:52:47;20.08;;;5.60;;
52414;SDS011;38340;52.964;6.086;2023-12-20T03:55:12;29.85;;;6.15;;
52414;SDS011;38340;52.964;6.086;2023-12-20T03:57:38;20.45;;;5.45;;
52414;SDS011;38340;52.964;6.086;2023-12-20T04:00:04;15.05;;;5.15;;
52414;SDS011;38340;52.964;6.086;2023-12-20T04:02:35;19.80;;;5.45;;
52414;SDS011;38340;52.964;6.086;2023-12-20T04:05:05;20.30;;;4.75;;
52414;SDS011;38340;52.964;6.086;2023-12-20T04:07:31;18.50;;;4.63;;
52414;SDS011;38340;52.964;6.086;2023-12-20T04:09:57;16.20;;;4.97;;
52414;SDS011;38340;52.964;6.086;2023-12-20T04:12:22;19.08;;;4.55;;
52414;SDS011;38340;52.964;6.086;2023-12-20T04:14:48;26.05;;;5.00;;
52414;SDS011;38340;52.964;6.086;2023-12-20T04:17:14;24.95;;;5.05;;
52414;SDS011;38340;52.964;6.086;2023-12-20T04:19:41;18.02;;;4.72;;
52414;SDS011;38340;52.964;6.086;2023-12-20T04:22:07;17.48;;;4.35;;
52414;SDS011;38340;52.964;6.086;2023-12-20T04:24:32;25.38;;;5.32;;
52414;SDS011;38340;52.964;6.086;2023-12-20T04:26:58;18.08;;;6.13;;
52414;SDS011;38340;52.964;6.086;2023-12-20T04:29:24;21.50;;;5.10;;
52414;SDS011;38340;52.964;6.086;2023-12-20T04:31:49;20.20;;;4.97;;
52414;SDS011;38340;52.964;6.086;2023-12-20T04:34:18;22.83;;;5.85;;
52414;SDS011;38340;52.964;6.086;2023-12-20T04:36:43;26.90;;;4.90;;
52414;SDS011;38340;52.964;6.086;2023-12-20T04:39:09;23.40;;;6.45;;
52414;SDS011;38340;52.964;6.086;2023-12-20T04:41:36;19.63;;;5.13;;
52414;SDS011;38340;52.964;6.086;2023-12-20T04:44:02;15.35;;;4.60;;
52414;SDS011;38340;52.964;6.086;2023-12-20T04:46:27;19.30;;;5.22;;
52414;SDS011;38340;52.964;6.086;2023-12-20T04:48:53;17.70;;;5.43;;
52414;SDS011;38340;52.964;6.086;2023-12-20T04:51:19;22.65;;;5.50;;
52414;SDS011;38340;52.964;6.086;2023-12-20T04:53:45;22.88;;;5.38;;
52414;SDS011;38340;52.964;6.086;2023-12-20T04:56:10;23.92;;;5.78;;
52414;SDS011;38340;52.964;6.086;2023-12-20T04:58:36;19.27;;;5.47;;
52414;SDS011;38340;52.964;6.086;2023-12-20T05:01:03;16.05;;;5.28;;
52414;SDS011;38340;52.964;6.086;2023-12-20T05:03:30;22.83;;;5.80;;
52414;SDS011;38340;52.964;6.086;2023-12-20T05:05:56;22.63;;;4.07;;
52414;SDS011;38340;52.964;6.086;2023-12-20T05:08:21;22.25;;;4.53;;
52414;SDS011;38340;52.964;6.086;2023-12-20T05:10:47;13.77;;;4.35;;
52414;SDS011;38340;52.964;6.086;2023-12-20T05:13:13;13.23;;;5.25;;
52414;SDS011;38340;52.964;6.086;2023-12-20T05:15:39;17.23;;;4.55;;
52414;SDS011;38340;52.964;6.086;2023-12-20T05:18:04;19.55;;;4.65;;
52414;SDS011;38340;52.964;6.086;2023-12-20T05:20:30;26.98;;;5.57;;
52414;SDS011;38340;52.964;6.086;2023-12-20T05:22:56;17.98;;;4.63;;
52414;SDS011;38340;52.964;6.086;2023-12-20T05:25:22;16.65;;;4.32;;
52414;SDS011;38340;52.964;6.086;2023-12-20T05:27:47;19.33;;;5.07;;
52414;SDS011;38340;52.964;6.086;2023-12-20T05:30:13;18.27;;;4.53;;
52414;SDS011;38340;52.964;6.086;2023-12-20T05:32:39;22.50;;;4.97;;
52414;SDS011;38340;52.964;6.086;2023-12-20T05:35:05;27.65;;;5.15;;
52414;SDS011;38340;52.964;6.086;2023-12-20T05:37:31;21.95;;;4.25;;
52414;SDS011;38340;52.964;6.086;2023-12-20T05:39:56;19.38;;;4.57;;
52414;SDS011;38340;52.964;6.086;2023-12-20T05:42:22;17.75;;;4.55;;
52414;SDS011;38340;52.964;6.086;2023-12-20T05:44:48;22.88;;;4.80;;
52414;SDS011;38340;52.964;6.086;2023-12-20T05:47:13;14.18;;;5.00;;
52414;SDS011;38340;52.964;6.086;2023-12-20T05:49:39;18.38;;;4.85;;
52414;SDS011;38340;52.964;6.086;2023-12-20T05:52:05;20.15;;;5.28;;
52414;SDS011;38340;52.964;6.086;2023-12-20T05:54:30;19.02;;;5.05;;
52414;SDS011;38340;52.964;6.086;2023-12-20T05:56:56;24.60;;;6.05;;
52414;SDS011;38340;52.964;6.086;2023-12-20T05:59:22;17.13;;;4.72;;
52414;SDS011;38340;52.964;6.086;2023-12-20T06:01:48;19.58;;;4.20;;
52414;SDS011;38340;52.964;6.086;2023-12-20T06:04:13;20.88;;;4.18;;
52414;SDS011;38340;52.964;6.086;2023-12-20T06:06:42;14.90;;;3.88;;
52414;SDS011;38340;52.964;6.086;2023-12-20T06:09:08;26.33;;;4.38;;
52414;SDS011;38340;52.964;6.086;2023-12-20T06:11:34;24.73;;;5.28;;
52414;SDS011;38340;52.964;6.086;2023-12-20T06:14:00;22.83;;;4.20;;
52414;SDS011;38340;52.964;6.086;2023-12-20T06:16:26;16.27;;;4.13;;
52414;SDS011;38340;52.964;6.086;2023-12-20T06:18:51;15.48;;;3.28;;
52414;SDS011;38340;52.964;6.086;2023-12-20T06:21:17;21.95;;;4.22;;
52414;SDS011;38340;52.964;6.086;2023-12-20T06:23:43;25.48;;;5.30;;
52414;SDS011;38340;52.964;6.086;2023-12-20T06:26:08;17.30;;;4.72;;
52414;SDS011;38340;52.964;6.086;2023-12-20T06:28:34;20.38;;;4.63;;
52414;SDS011;38340;52.964;6.086;2023-12-20T06:31:00;21.65;;;4.53;;
52414;SDS011;38340;52.964;6.086;2023-12-20T06:33:26;18.65;;;3.80;;
52414;SDS011;38340;52.964;6.086;2023-12-20T06:35:52;19.00;;;5.05;;
52414;SDS011;38340;52.964;6.086;2023-12-20T06:38:18;20.83;;;5.43;;
52414;SDS011;38340;52.964;6.086;2023-12-20T06:40:44;23.02;;;4.88;;
52414;SDS011;38340;52.964;6.086;2023-12-20T06:43:11;20.73;;;3.80;;
52414;SDS011;38340;52.964;6.086;2023-12-20T06:45:38;19.30;;;4.90;;
52414;SDS011;38340;52.964;6.086;2023-12-20T06:48:04;21.63;;;4.57;;
52414;SDS011;38340;52.964;6.086;2023-12-20T06:50:30;12.30;;;3.88;;
52414;SDS011;38340;52.964;6.086;2023-12-20T06:52:56;36.17;;;4.93;;
52414;SDS011;38340;52.964;6.086;2023-12-20T06:55:21;27.55;;;4.68;;
52414;SDS011;38340;52.964;6.086;2023-12-20T06:57:47;15.95;;;4.07;;
52414;SDS011;38340;52.964;6.086;2023-12-20T07:00:13;19.85;;;5.57;;
52414;SDS011;38340;52.964;6.086;2023-12-20T07:02:39;21.58;;;6.47;;
52414;SDS011;38340;52.964;6.086;2023-12-20T07:05:04;22.10;;;6.43;;
52414;SDS011;38340;52.964;6.086;2023-12-20T07:07:31;29.13;;;7.15;;
52414;SDS011;38340;52.964;6.086;2023-12-20T07:09:56;17.77;;;5.63;;
52414;SDS011;38340;52.964;6.086;2023-12-20T07:12:22;28.35;;;6.88;;
52414;SDS011;38340;52.964;6.086;2023-12-20T07:14:48;19.52;;;5.97;;
52414;SDS011;38340;52.964;6.086;2023-12-20T07:17:13;23.40;;;6.22;;
52414;SDS011;38340;52.964;6.086;2023-12-20T07:19:40;25.45;;;6.03;;
52414;SDS011;38340;52.964;6.086;2023-12-20T07:22:06;22.20;;;7.03;;
52414;SDS011;38340;52.964;6.086;2023-12-20T07:24:35;22.77;;;6.22;;
52414;SDS011;38340;52.964;6.086;2023-12-20T07:27:01;22.45;;;6.18;;
52414;SDS011;38340;52.964;6.086;2023-12-20T07:29:27;21.80;;;6.10;;
52414;SDS011;38340;52.964;6.086;2023-12-20T07:31:53;23.27;;;6.22;;
52414;SDS011;38340;52.964;6.086;2023-12-20T07:34:19;22.52;;;5.93;;
52414;SDS011;38340;52.964;6.086;2023-12-20T07:36:45;23.23;;;5.97;;
52414;SDS011;38340;52.964;6.086;2023-12-20T07:39:12;32.50;;;6.68;;
52414;SDS011;38340;52.964;6.086;2023-12-20T07:41:38;22.20;;;6.35;;
52414;SDS011;38340;52.964;6.086;2023-12-20T07:44:04;22.75;;;6.00;;
52414;SDS011;38340;52.964;6.086;2023-12-20T07:46:29;26.48;;;6.38;;
52414;SDS011;38340;52.964;6.086;2023-12-20T07:48:55;20.73;;;6.28;;
52414;SDS011;38340;52.964;6.086;2023-12-20T07:51:21;21.95;;;6.35;;
52414;SDS011;38340;52.964;6.086;2023-12-20T07:53:47;23.17;;;6.88;;
52414;SDS011;38340;52.964;6.086;2023-12-20T07:56:16;29.85;;;7.15;;
52414;SDS011;38340;52.964;6.086;2023-12-20T07:58:43;17.55;;;4.97;;
52414;SDS011;38340;52.964;6.086;2023-12-20T08:01:10;28.95;;;6.75;;
52414;SDS011;38340;52.964;6.086;2023-12-20T08:03:36;16.33;;;6.32;;
52414;SDS011;38340;52.964;6.086;2023-12-20T08:06:02;20.88;;;6.18;;
52414;SDS011;38340;52.964;6.086;2023-12-20T08:08:28;16.55;;;5.68;;
52414;SDS011;38340;52.964;6.086;2023-12-20T08:10:54;28.80;;;5.70;;
52414;SDS011;38340;52.964;6.086;2023-12-20T08:13:19;21.15;;;5.18;;
52414;SDS011;38340;52.964;6.086;2023-12-20T08:15:50;21.08;;;6.28;;
52414;SDS011;38340;52.964;6.086;2023-12-20T08:18:15;24.77;;;6.80;;
52414;SDS011;38340;52.964;6.086;2023-12-20T08:20:41;25.13;;;7.45;;
52414;SDS011;38340;52.964;6.086;2023-12-20T08:23:06;16.80;;;5.75;;
52414;SDS011;38340;52.964;6.086;2023-12-20T08:25:32;25.10;;;6.93;;
52414;SDS011;38340;52.964;6.086;2023-12-20T08:27:58;22.25;;;6.95;;
52414;SDS011;38340;52.964;6.086;2023-12-20T08:30:23;28.67;;;6.18;;
52414;SDS011;38340;52.964;6.086;2023-12-20T08:32:50;20.65;;;5.63;;
52414;SDS011;38340;52.964;6.086;2023-12-20T08:35:16;26.52;;;5.95;;
52414;SDS011;38340;52.964;6.086;2023-12-20T08:37:43;23.98;;;6.90;;
52414;SDS011;38340;52.964;6.086;2023-12-20T08:40:08;27.52;;;7.57;;
52414;SDS011;38340;52.964;6.086;2023-12-20T08:42:34;18.13;;;5.88;;
52414;SDS011;38340;52.964;6.086;2023-12-20T08:45:00;20.10;;;5.95;;
52414;SDS011;38340;52.964;6.086;2023-12-20T08:47:26;33.38;;;8.00;;
52414;SDS011;38340;52.964;6.086;2023-12-20T08:49:52;21.00;;;6.30;;
52414;SDS011;38340;52.964;6.086;2023-12-20T08:52:23;22.73;;;6.05;;
52414;SDS011;38340;52.964;6.086;2023-12-20T08:54:49;17.95;;;6.35;;
52414;SDS011;38340;52.964;6.086;2023-12-20T08:57:20;21.67;;;5.75;;
52414;SDS011;38340;52.964;6.086;2023-12-20T08:59:49;25.23;;;7.28;;
52414;SDS011;38340;52.964;6.086;2023-12-20T09:02:15;22.50;;;5.65;;
52414;SDS011;38340;52.964;6.086;2023-12-20T09:04:42;24.08;;;6.22;;
52414;SDS011;38340;52.964;6.086;2023-12-20T09:07:41;22.85;;;5.70;;
52414;SDS011;38340;52.964;6.086;2023-12-20T09:10:00;21.67;;;5.93;;
52414;SDS011;38340;52.964;6.086;2023-12-20T09:12:25;22.42;;;6.60;;
52414;SDS011;38340;52.964;6.086;2023-12-20T09:14:51;16.98;;;5.57;;
52414;SDS011;38340;52.964;6.086;2023-12-20T09:17:18;21.02;;;5.43;;
52414;SDS011;38340;52.964;6.086;2023-12-20T09:19:44;26.73;;;6.78;;
52414;SDS011;38340;52.964;6.086;2023-12-20T09:22:10;24.30;;;6.00;;
52414;SDS011;38340;52.964;6.086;2023-12-20T09:24:36;30.15;;;6.50;;
52414;SDS011;38340;52.964;6.086;2023-12-20T09:27:02;26.77;;;3.45;;
52414;SDS011;38340;52.964;6.086;2023-12-20T09:29:28;10.07;;;3.40;;
52414;SDS011;38340;52.964;6.086;2023-12-20T09:31:54;18.48;;;4.82;;
52414;SDS011;38340;52.964;6.086;2023-12-20T09:34:20;19.15;;;5.65;;
52414;SDS011;38340;52.964;6.086;2023-12-20T09:36:47;16.60;;;6.10;;
52414;SDS011;38340;52.964;6.086;2023-12-20T09:39:13;11.60;;;4.15;;
52414;SDS011;38340;52.964;6.086;2023-12-20T09:41:42;10.38;;;3.10;;
52414;SDS011;38340;52.964;6.086;2023-12-20T09:44:14;9.25;;;3.15;;
52414;SDS011;38340;52.964;6.086;2023-12-20T09:46:43;10.13;;;3.67;;
52414;SDS011;38340;52.964;6.086;2023-12-20T09:49:11;16.45;;;4.28;;
52414;SDS011;38340;52.964;6.086;2023-12-20T09:51:38;12.48;;;3.45;;
52414;SDS011;38340;52.964;6.086;2023-12-20T09:54:05;14.63;;;3.13;;
52414;SDS011;38340;52.964;6.086;2023-12-20T09:56:31;14.70;;;3.60;;
52414;SDS011;38340;52.964;6.086;2023-12-20T09:58:57;20.45;;;3.63;;
52414;SDS011;38340;52.964;6.086;2023-12-20T10:01:26;12.68;;;2.78;;
52414;SDS011;38340;52.964;6.086;2023-12-20T10:03:54;16.95;;;3.50;;
52414;SDS011;38340;52.964;6.086;2023-12-20T10:06:20;12.23;;;3.45;;
52414;SDS011;38340;52.964;6.086;2023-12-20T10:08:47;11.70;;;3.15;;
52414;SDS011;38340;52.964;6.086;2023-12-20T10:11:12;14.48;;;4.22;;
52414;SDS011;38340;52.964;6.086;2023-12-20T10:13:39;8.73;;;2.97;;
52414;SDS011;38340;52.964;6.086;2023-12-20T10:16:09;11.32;;;3.00;;
52414;SDS011;38340;52.964;6.086;2023-12-20T10:18:34;14.00;;;2.92;;
52414;SDS011;38340;52.964;6.086;2023-12-20T10:21:01;15.20;;;4.10;;
52414;SDS011;38340;52.964;6.086;2023-12-20T10:23:28;11.18;;;3.03;;
52414;SDS011;38340;52.964;6.086;2023-12-20T10:25:59;11.50;;;3.17;;
52414;SDS011;38340;52.964;6.086;2023-12-20T10:28:25;10.10;;;3.50;;
52414;SDS011;38340;52.964;6.086;2023-12-20T10:30:53;14.55;;;3.55;;
52414;SDS011;38340;52.964;6.086;2023-12-20T10:33:24;15.05;;;3.58;;
52414;SDS011;38340;52.964;6.086;2023-12-20T10:35:51;9.57;;;3.13;;
52414;SDS011;38340;52.964;6.086;2023-12-20T10:38:18;17.42;;;3.15;;
52414;SDS011;38340;52.964;6.086;2023-12-20T10:40:45;10.93;;;3.10;;
52414;SDS011;38340;52.964;6.086;2023-12-20T10:43:11;8.45;;;2.60;;
52414;SDS011;38340;52.964;6.086;2023-12-20T10:45:37;9.48;;;2.60;;
52414;SDS011;38340;52.964;6.086;2023-12-20T10:48:03;10.23;;;2.83;;
52414;SDS011;38340;52.964;6.086;2023-12-20T10:50:29;9.90;;;2.78;;
52414;SDS011;38340;52.964;6.086;2023-12-20T10:52:56;16.98;;;3.53;;
52414;SDS011;38340;52.964;6.086;2023-12-20T10:55:23;13.95;;;4.43;;
52414;SDS011;38340;52.964;6.086;2023-12-20T10:57:52;6.18;;;2.42;;
52414;SDS011;38340;52.964;6.086;2023-12-20T11:00:24;12.95;;;2.97;;
52414;SDS011;38340;52.964;6.086;2023-12-20T11:02:50;10.98;;;3.33;;
52414;SDS011;38340;52.964;6.086;2023-12-20T11:05:29;15.10;;;3.40;;
52414;SDS011;38340;52.964;6.086;2023-12-20T11:10:47;14.25;;;4.18;;
52414;SDS011;38340;52.964;6.086;2023-12-20T11:13:23;14.98;;;3.92;;
52414;SDS011;38340;52.964;6.086;2023-12-20T11:15:55;15.77;;;4.05;;
52414;SDS011;38340;52.964;6.086;2023-12-20T11:18:28;14.00;;;4.15;;
52414;SDS011;38340;52.964;6.086;2023-12-20T11:20:54;16.52;;;3.30;;
52414;SDS011;38340;52.964;6.086;2023-12-20T11:23:20;20.35;;;3.75;;
52414;SDS011;38340;52.964;6.086;2023-12-20T11:25:48;9.15;;;2.83;;
52414;SDS011;38340;52.964;6.086;2023-12-20T11:28:16;10.73;;;3.47;;
52414;SDS011;38340;52.964;6.086;2023-12-20T11:30:53;12.90;;;3.47;;
52414;SDS011;38340;52.964;6.086;2023-12-20T11:33:27;9.25;;;3.25;;
52414;SDS011;38340;52.964;6.086;2023-12-20T11:35:56;13.10;;;2.80;;
52414;SDS011;38340;52.964;6.086;2023-12-20T11:38:24;16.33;;;3.80;;
52414;SDS011;38340;52.964;6.086;2023-12-20T11:40:50;13.80;;;3.15;;
52414;SDS011;38340;52.964;6.086;2023-12-20T11:46:06;13.93;;;3.70;;
52414;SDS011;38340;52.964;6.086;2023-12-20T11:48:39;14.90;;;3.05;;
52414;SDS011;38340;52.964;6.086;2023-12-20T11:51:09;13.80;;;3.28;;
52414;SDS011;38340;52.964;6.086;2023-12-20T11:53:38;12.77;;;3.10;;
52414;SDS011;38340;52.964;6.086;2023-12-20T11:56:07;17.55;;;4.25;;
52414;SDS011;38340;52.964;6.086;2023-12-20T11:58:33;9.05;;;3.20;;
52414;SDS011;38340;52.964;6.086;2023-12-20T12:01:00;18.73;;;4.05;;
52414;SDS011;38340;52.964;6.086;2023-12-20T12:03:29;18.23;;;3.72;;
52414;SDS011;38340;52.964;6.086;2023-12-20T12:05:55;12.60;;;3.50;;
52414;SDS011;38340;52.964;6.086;2023-12-20T12:08:22;20.70;;;4.30;;
52414;SDS011;38340;52.964;6.086;2023-12-20T12:10:47;20.30;;;4.40;;
52414;SDS011;38340;52.964;6.086;2023-12-20T12:13:13;10.23;;;3.78;;
52414;SDS011;38340;52.964;6.086;2023-12-20T12:15:39;8.55;;;3.53;;
52414;SDS011;38340;52.964;6.086;2023-12-20T12:18:07;22.88;;;3.88;;
52414;SDS011;38340;52.964;6.086;2023-12-20T12:20:33;12.93;;;3.42;;
52414;SDS011;38340;52.964;6.086;2023-12-20T12:23:02;14.60;;;3.58;;
52414;SDS011;38340;52.964;6.086;2023-12-20T12:25:30;17.80;;;3.67;;
52414;SDS011;38340;52.964;6.086;2023-12-20T12:27:57;16.38;;;3.80;;
52414;SDS011;38340;52.964;6.086;2023-12-20T12:30:23;12.25;;;2.95;;
52414;SDS011;38340;52.964;6.086;2023-12-20T12:32:52;12.80;;;3.33;;
52414;SDS011;38340;52.964;6.086;2023-12-20T12:35:18;14.40;;;4.20;;
52414;SDS011;38340;52.964;6.086;2023-12-20T12:37:45;13.45;;;4.00;;
52414;SDS011;38340;52.964;6.086;2023-12-20T12:40:14;14.48;;;3.65;;
52414;SDS011;38340;52.964;6.086;2023-12-20T12:42:41;9.55;;;2.90;;
52414;SDS011;38340;52.964;6.086;2023-12-20T12:45:08;13.98;;;4.03;;
52414;SDS011;38340;52.964;6.086;2023-12-20T12:47:34;13.95;;;3.55;;
52414;SDS011;38340;52.964;6.086;2023-12-20T12:50:00;10.80;;;2.95;;
52414;SDS011;38340;52.964;6.086;2023-12-20T12:52:26;13.52;;;4.03;;
52414;SDS011;38340;52.964;6.086;2023-12-20T12:54:52;11.00;;;3.65;;
52414;SDS011;38340;52.964;6.086;2023-12-20T12:57:18;10.68;;;3.20;;
52414;SDS011;38340;52.964;6.086;2023-12-20T12:59:44;10.80;;;3.80;;
52414;SDS011;38340;52.964;6.086;2023-12-20T13:02:13;14.43;;;3.47;;
52414;SDS011;38340;52.964;6.086;2023-12-20T13:04:42;9.70;;;3.10;;
52414;SDS011;38340;52.964;6.086;2023-12-20T13:07:09;12.50;;;2.85;;
52414;SDS011;38340;52.964;6.086;2023-12-20T13:09:38;12.93;;;3.03;;
52414;SDS011;38340;52.964;6.086;2023-12-20T13:12:04;9.32;;;2.40;;
52414;SDS011;38340;52.964;6.086;2023-12-20T13:14:34;14.07;;;3.30;;
52414;SDS011;38340;52.964;6.086;2023-12-20T13:17:02;11.38;;;3.03;;
52414;SDS011;38340;52.964;6.086;2023-12-20T13:19:29;12.98;;;3.00;;
52414;SDS011;38340;52.964;6.086;2023-12-20T13:21:55;11.60;;;3.38;;
52414;SDS011;38340;52.964;6.086;2023-12-20T13:24:21;6.85;;;2.58;;
52414;SDS011;38340;52.964;6.086;2023-12-20T13:26:47;12.52;;;3.00;;
52414;SDS011;38340;52.964;6.086;2023-12-20T13:29:12;10.98;;;3.10;;
52414;SDS011;38340;52.964;6.086;2023-12-20T13:31:38;46.28;;;7.85;;
52414;SDS011;38340;52.964;6.086;2023-12-20T13:34:05;12.65;;;3.83;;
52414;SDS011;38340;52.964;6.086;2023-12-20T13:36:31;7.55;;;2.70;;
52414;SDS011;38340;52.964;6.086;2023-12-20T13:38:57;9.90;;;2.92;;
52414;SDS011;38340;52.964;6.086;2023-12-20T13:41:22;10.60;;;2.97;;
52414;SDS011;38340;52.964;6.086;2023-12-20T13:43:48;16.40;;;3.13;;
52414;SDS011;38340;52.964;6.086;2023-12-20T13:46:14;8.23;;;2.67;;
52414;SDS011;38340;52.964;6.086;2023-12-20T13:48:40;24.90;;;4.50;;
52414;SDS011;38340;52.964;6.086;2023-12-20T13:51:06;10.32;;;2.80;;
52414;SDS011;38340;52.964;6.086;2023-12-20T13:53:32;13.93;;;3.38;;
52414;SDS011;38340;52.964;6.086;2023-12-20T13:55:58;31.15;;;5.10;;
52414;SDS011;38340;52.964;6.086;2023-12-20T13:58:25;10.65;;;3.10;;
52414;SDS011;38340;52.964;6.086;2023-12-20T14:00:51;11.63;;;3.47;;
52414;SDS011;38340;52.964;6.086;2023-12-20T14:03:16;9.30;;;3.05;;
52414;SDS011;38340;52.964;6.086;2023-12-20T14:05:42;15.48;;;3.30;;
52414;SDS011;38340;52.964;6.086;2023-12-20T14:08:08;9.23;;;3.40;;
52414;SDS011;38340;52.964;6.086;2023-12-20T14:10:35;6.78;;;3.00;;
52414;SDS011;38340;52.964;6.086;2023-12-20T14:13:00;12.32;;;2.63;;
52414;SDS011;38340;52.964;6.086;2023-12-20T14:15:26;16.60;;;3.60;;
52414;SDS011;38340;52.964;6.086;2023-12-20T14:17:52;9.75;;;3.00;;
52414;SDS011;38340;52.964;6.086;2023-12-20T14:20:18;11.38;;;2.83;;
52414;SDS011;38340;52.964;6.086;2023-12-20T14:22:44;11.32;;;3.28;;
52414;SDS011;38340;52.964;6.086;2023-12-20T14:25:13;8.23;;;3.03;;
52414;SDS011;38340;52.964;6.086;2023-12-20T14:27:40;8.02;;;2.50;;
52414;SDS011;38340;52.964;6.086;2023-12-20T14:30:08;10.05;;;2.92;;
52414;SDS011;38340;52.964;6.086;2023-12-20T14:32:34;23.83;;;3.53;;
52414;SDS011;38340;52.964;6.086;2023-12-20T14:35:04;10.70;;;2.75;;
52414;SDS011;38340;52.964;6.086;2023-12-20T14:37:30;9.13;;;2.65;;